Time;durP1;ratioP1;P1;durP2;ratioP2;P2;SDS_P1;SDS_P2;PMS_P1;PMS_P2;Temp;Humidity;BMP_temperature;BMP_pressure;BME280_temperature;BME280_humidity;BME280_pressure;Samples;Min_cycle;Max_cycle;Signal;HPM_P1;HPM_P2
2021/12/27 00:00:33;;;;;;;10.27;7.18;;;;;;;3.33;99.78;99551.91;678649;29;2071;-85
2021/12/27 00:01:00;;;;;;;11.20;7.80;;;;;;;3.27;99.32;99574.25;677394;29;1392;-83
2021/12/27 00:01:30;;;;;;;9.85;7.53;;;;;;;3.27;100.00;99575.13;679883;28;1305;-84
2021/12/27 00:01:59;;;;;;;11.48;8.00;;;;;;;3.31;99.67;99566.53;683862;28;1525;-84
2021/12/27 00:02:20;;;;;;;10.85;7.63;;;;;;;3.28;100.00;99551.03;681011;28;4525;-84
2021/12/27 00:02:41;;;;;;;11.02;8.15;;;;;;;3.22;100.00;99574.22;682788;28;1407;-85
2021/12/27 00:03:21;;;;;;;10.45;7.63;;;;;;;3.15;100.00;99575.03;685652;28;1347;-85
2021/12/27 00:03:49;;;;;;;10.73;7.40;;;;;;;3.17;100.00;99573.31;685018;28;2276;-85
2021/12/27 00:04:15;;;;;;;10.57;7.20;;;;;;;3.08;100.00;99575.84;686180;28;1412;-85
2021/12/27 00:04:39;;;;;;;10.10;7.32;;;;;;;3.06;100.00;99550.84;680737;28;1246;-85
2021/12/27 00:05:08;;;;;;;9.45;7.20;;;;;;;3.09;100.00;99565.50;675877;29;1234;-85
2021/12/27 00:05:38;;;;;;;11.13;7.40;;;;;;;3.16;100.00;99571.59;676977;29;4344;-85
2021/12/27 00:05:59;;;;;;;10.82;7.60;;;;;;;3.16;100.00;99571.59;677745;29;1255;-84
2021/12/27 00:06:25;;;;;;;10.20;7.25;;;;;;;3.17;100.00;99573.31;682404;28;1067;-85
2021/12/27 00:06:48;;;;;;;10.18;7.18;;;;;;;3.24;100.00;99577.69;679858;29;1248;-85
2021/12/27 00:07:10;;;;;;;10.45;7.65;;;;;;;3.18;100.00;99575.03;676183;29;1241;-85
2021/12/27 00:07:31;;;;;;;10.15;7.70;;;;;;;3.17;100.00;99573.31;679772;28;1473;-84
2021/12/27 00:07:55;;;;;;;10.13;7.45;;;;;;;3.10;100.00;99576.69;679498;29;1260;-84
2021/12/27 00:08:18;;;;;;;10.00;7.72;;;;;;;3.12;100.00;99587.91;677103;29;4414;-84
2021/12/27 00:08:51;;;;;;;10.38;7.68;;;;;;;3.06;100.00;99550.00;677476;29;1973;-85
2021/12/27 00:09:14;;;;;;;11.07;7.80;;;;;;;3.11;100.00;99581.03;673304;29;973;-85
2021/12/27 00:09:35;;;;;;;10.68;7.82;;;;;;;3.07;100.00;99569.78;678046;29;1412;-85
2021/12/27 00:10:02;;;;;;;10.18;7.80;;;;;;;3.08;100.00;99586.16;680272;29;1300;-86
2021/12/27 00:10:35;;;;;;;10.20;7.68;;;;;;;3.08;100.00;99568.09;678589;29;1247;-84
2021/12/27 00:11:09;;;;;;;10.25;7.13;;;;;;;3.13;100.00;99569.84;681287;29;1182;-84
2021/12/27 00:11:32;;;;;;;10.85;7.80;;;;;;;3.19;100.00;99575.06;670982;28;4363;-84
2021/12/27 00:11:55;;;;;;;11.45;7.90;;;;;;;3.24;100.00;99559.59;678130;28;1954;-84
2021/12/27 00:12:18;;;;;;;10.16;7.74;;;;;;;3.17;100.00;99542.31;677390;29;1343;-85
2021/12/27 00:12:44;;;;;;;10.05;7.65;;;;;;;3.18;100.00;99546.63;678467;29;1428;-84
2021/12/27 00:13:07;;;;;;;10.20;7.57;;;;;;;3.16;100.00;99592.25;678881;29;1308;-84
2021/12/27 00:13:30;;;;;;;10.32;7.32;;;;;;;3.17;100.00;99557.81;672305;29;1467;-84
2021/12/27 00:13:58;;;;;;;10.65;7.70;;;;;;;3.15;100.00;99575.03;680339;29;1274;-85
2021/12/27 00:14:22;;;;;;;11.13;8.05;;;;;;;3.11;100.00;99568.09;672710;29;4373;-85
2021/12/27 00:14:45;;;;;;;10.35;7.45;;;;;;;3.19;100.00;99564.72;675545;29;1921;-85
2021/12/27 00:15:06;;;;;;;10.52;7.63;;;;;;;3.23;100.00;99569.06;681773;28;1364;-85
2021/12/27 00:15:30;;;;;;;10.35;7.38;;;;;;;3.25;100.00;99576.81;677548;29;1383;-85
2021/12/27 00:15:54;;;;;;;9.75;7.57;;;;;;;3.20;100.00;99565.59;679068;29;1338;-86
2021/12/27 00:16:17;;;;;;;9.82;7.22;;;;;;;3.19;100.00;99569.03;681089;28;3823;-85
2021/12/27 00:16:41;;;;;;;10.68;7.57;;;;;;;3.18;100.00;99538.88;679653;28;1215;-84
2021/12/27 00:17:07;;;;;;;10.75;7.75;;;;;;;3.12;100.00;99565.53;681435;28;2086;-85
2021/12/27 00:17:31;;;;;;;10.80;8.10;;;;;;;3.05;100.00;99568.94;675624;28;4456;-85
2021/12/27 00:17:54;;;;;;;10.40;7.68;;;;;;;3.19;100.00;99571.63;679656;28;1432;-84
2021/12/27 00:18:17;;;;;;;10.10;7.18;;;;;;;3.20;100.00;99563.03;677605;29;892;-85
2021/12/27 00:18:40;;;;;;;10.70;7.47;;;;;;;3.23;100.00;99568.19;676436;29;1299;-84
2021/12/27 00:19:15;;;;;;;10.10;7.47;;;;;;;3.18;100.00;99567.28;676992;29;963;-85
2021/12/27 00:19:40;;;;;;;10.07;7.50;;;;;;;3.15;100.00;99541.44;677815;29;1219;-84
2021/12/27 00:20:03;;;;;;;10.02;7.60;;;;;;;3.14;100.00;99578.44;680635;28;2100;-85
2021/12/27 00:20:27;;;;;;;10.38;7.90;;;;;;;3.19;100.00;99559.56;673347;29;4368;-85
2021/12/27 00:21:05;;;;;;;10.00;7.75;;;;;;;3.17;100.00;99571.59;675884;29;1524;-85
2021/12/27 00:21:29;;;;;;;10.40;7.65;;;;;;;3.19;100.00;99566.44;681725;28;1121;-85
2021/12/27 00:21:59;;;;;;;10.93;7.63;;;;;;;3.16;100.00;99538.03;681307;29;1282;-84
2021/12/27 00:22:29;;;;;;;10.45;7.88;;;;;;;3.12;100.00;99537.13;676164;29;1285;-85
2021/12/27 00:22:57;;;;;;;11.55;8.13;;;;;;;3.02;100.00;99574.94;676749;29;1843;-85
2021/12/27 00:23:20;;;;;;;10.85;7.68;;;;;;;3.06;100.00;99556.03;676464;29;4431;-85
2021/12/27 00:23:41;;;;;;;10.57;7.75;;;;;;;3.15;100.00;99555.22;674565;29;1233;-85
2021/12/27 00:24:05;;;;;;;11.18;8.13;;;;;;;3.19;100.00;99536.31;676299;29;1340;-85
2021/12/27 00:24:25;;;;;;;10.55;7.75;;;;;;;3.11;100.00;99558.63;679995;28;1340;-85
2021/12/27 00:25:14;;;;;;;11.75;8.40;;;;;;;3.07;100.00;99559.47;678251;29;1248;-85
2021/12/27 00:25:44;;;;;;;10.50;7.86;;;;;;;3.11;100.00;99537.97;681276;28;1378;-85
2021/12/27 00:26:07;;;;;;;10.93;8.07;;;;;;;3.02;100.00;99528.44;677959;29;2235;-85
2021/12/27 00:26:37;;;;;;;11.40;8.23;;;;;;;3.01;100.00;99559.41;669942;29;4323;-85
2021/12/27 00:26:57;;;;;;;11.38;8.18;;;;;;;3.05;100.00;99523.31;683368;28;1379;-85
2021/12/27 00:27:21;;;;;;;11.00;8.20;;;;;;;3.06;100.00;99561.19;678871;29;1205;-85
2021/12/27 00:27:55;;;;;;;10.90;8.43;;;;;;;3.13;100.00;99556.94;678073;29;2705;-85
2021/12/27 00:28:32;;;;;;;11.55;8.00;;;;;;;3.07;100.00;99543.97;676901;29;920;-85
2021/12/27 00:28:53;;;;;;;10.85;7.65;;;;;;;3.10;100.00;99561.19;678195;29;2162;-85
2021/12/27 00:29:17;;;;;;;10.82;8.00;;;;;;;3.10;100.00;99556.03;681461;28;4339;-84
2021/12/27 00:29:37;;;;;;;10.70;7.85;;;;;;;3.14;100.00;99531.97;681990;28;1261;-85
2021/12/27 00:30:05;;;;;;;10.98;8.32;;;;;;;3.10;100.00;99541.41;680589;29;1326;-85
2021/12/27 00:30:25;;;;;;;10.85;7.97;;;;;;;3.03;100.00;99534.47;682661;28;1348;-85
2021/12/27 00:30:51;;;;;;;11.15;7.85;;;;;;;2.99;100.00;99566.28;682154;29;1340;-85
2021/12/27 00:31:14;;;;;;;10.23;7.70;;;;;;;2.94;100.00;99535.25;678755;29;1989;-84
2021/12/27 00:31:43;;;;;;;10.25;7.82;;;;;;;3.02;100.00;99558.56;684907;28;1217;-84
2021/12/27 00:32:09;;;;;;;11.05;8.23;;;;;;;3.08;100.00;99531.94;678377;29;2113;-85
2021/12/27 00:32:36;;;;;;;11.30;8.40;;;;;;;3.10;100.00;99561.19;677461;29;4398;-84
2021/12/27 00:32:56;;;;;;;11.18;8.20;;;;;;;3.10;100.00;99553.47;679906;29;1383;-85
2021/12/27 00:33:17;;;;;;;10.73;8.20;;;;;;;3.12;100.00;99531.09;682485;28;1489;-84
2021/12/27 00:33:42;;;;;;;10.63;7.97;;;;;;;3.22;100.00;99535.47;678628;28;1208;-85
2021/12/27 00:34:05;;;;;;;11.00;8.02;;;;;;;3.15;100.00;99569.84;678331;29;2031;-85
2021/12/27 00:34:26;;;;;;;10.70;7.90;;;;;;;3.16;100.00;99541.47;679272;28;1368;-84
2021/12/27 00:34:52;;;;;;;10.07;7.90;;;;;;;3.16;100.00;99528.53;681287;29;2220;-85
2021/12/27 00:35:29;;;;;;;11.57;8.10;;;;;;;3.22;100.00;99572.47;684531;28;4431;-85
2021/12/27 00:35:59;;;;;;;10.72;7.42;;;;;;;3.18;100.00;99546.63;680252;29;1261;-85
2021/12/27 00:36:22;;;;;;;10.57;7.95;;;;;;;3.16;100.00;99571.59;679904;28;1241;-85
2021/12/27 00:36:51;;;;;;;11.27;8.10;;;;;;;3.11;100.00;99550.88;680030;28;1369;-85
2021/12/27 00:37:15;;;;;;;10.75;8.07;;;;;;;3.06;100.00;99527.63;684377;28;1912;-85
2021/12/27 00:37:39;;;;;;;10.73;7.88;;;;;;;2.98;100.00;99549.06;678907;28;1342;-85
2021/12/27 00:38:11;;;;;;;10.30;7.78;;;;;;;3.08;100.00;99524.19;674941;29;1380;-84
2021/12/27 00:38:37;;;;;;;10.80;7.85;;;;;;;3.13;100.00;99519.91;678875;29;4375;-85
2021/12/27 00:39:01;;;;;;;11.10;8.13;;;;;;;3.06;100.00;99545.69;685689;28;1431;-85
2021/12/27 00:39:27;;;;;;;10.80;8.15;;;;;;;3.11;100.00;99529.38;677626;29;1107;-84
2021/12/27 00:39:57;;;;;;;10.45;7.93;;;;;;;3.03;100.00;99530.19;683030;28;2202;-85
2021/12/27 00:40:28;;;;;;;;;;;;;;;;;;;;;
2021/12/27 00:40:51;;;;;;;11.45;8.20;;;;;;;3.16;100.00;99551.78;679736;29;1420;-84
2021/12/27 00:41:15;;;;;;;10.85;7.80;;;;;;;3.20;100.00;99539.78;678254;29;4550;-84
2021/12/27 00:41:41;;;;;;;10.80;7.70;;;;;;;3.19;100.00;99520.81;676693;29;1775;-84
2021/12/27 00:42:02;;;;;;;10.95;8.23;;;;;;;3.13;100.00;99538.88;679921;29;1435;-85
2021/12/27 00:42:23;;;;;;;11.25;8.27;;;;;;;3.21;100.00;99544.06;680090;29;1257;-84
2021/12/27 00:43:00;;;;;;;10.65;7.63;;;;;;;3.17;100.00;99543.19;679092;29;2248;-84
2021/12/27 00:43:28;;;;;;;10.88;8.02;;;;;;;3.08;100.00;99540.53;680824;28;1190;-84
2021/12/27 00:43:56;;;;;;;10.77;8.38;;;;;;;3.06;100.00;99552.59;676579;29;1352;-84
2021/12/27 00:44:31;;;;;;;10.45;8.10;;;;;;;3.04;100.00;99544.81;664454;29;4407;-84
2021/12/27 00:44:53;;;;;;;11.93;8.55;;;;;;;3.14;100.00;99555.22;676837;29;1297;-84
2021/12/27 00:45:21;;;;;;;11.30;8.18;;;;;;;3.18;100.00;99546.63;678915;29;1281;-84
2021/12/27 00:45:43;;;;;;;10.68;7.85;;;;;;;3.17;100.00;99524.22;681816;28;2171;-84
2021/12/27 00:46:06;;;;;;;10.95;8.30;;;;;;;3.17;100.00;99516.50;680804;28;1379;-84
2021/12/27 00:46:27;;;;;;;11.15;8.52;;;;;;;3.17;100.00;99519.94;678195;29;1413;-84
2021/12/27 00:46:56;;;;;;;11.23;8.25;;;;;;;3.03;100.00;99537.94;677264;29;1395;-84
2021/12/27 00:47:20;;;;;;;11.82;8.57;;;;;;;2.99;100.00;99555.94;674046;29;4342;-83
2021/12/27 00:47:43;;;;;;;10.27;7.97;;;;;;;3.16;100.00;99550.94;676125;29;1348;-84
2021/12/27 00:48:07;;;;;;;11.50;8.30;;;;;;;3.10;100.00;99541.41;675289;29;1234;-83
2021/12/27 00:48:27;;;;;;;11.55;8.25;;;;;;;3.02;100.00;99514.69;677809;29;2475;-83
2021/12/27 00:48:51;;;;;;;10.82;8.00;;;;;;;2.98;100.00;99521.53;675691;29;1283;-84
2021/12/27 00:49:11;;;;;;;11.10;8.10;;;;;;;2.94;100.00;99537.84;675183;29;1427;-84
2021/12/27 00:49:32;;;;;;;11.27;8.05;;;;;;;2.93;100.00;99528.38;676109;29;1348;-84
2021/12/27 00:49:53;;;;;;;11.68;8.35;;;;;;;2.93;100.00;99543.84;674616;29;1328;-84
2021/12/27 00:50:22;;;;;;;11.75;8.73;;;;;;;3.14;100.00;99550.91;676301;29;4353;-84
2021/12/27 00:50:49;;;;;;;11.93;8.60;;;;;;;3.17;100.00;99524.22;675506;29;1380;-84
2021/12/27 00:51:15;;;;;;;11.43;8.43;;;;;;;3.14;100.00;99552.63;675565;29;1936;-84
2021/12/27 00:51:36;;;;;;;10.77;8.50;;;;;;;3.17;100.00;99538.03;674740;29;2230;-84
2021/12/27 00:51:59;;;;;;;10.77;8.25;;;;;;;3.16;100.00;99543.19;681769;28;1348;-84
2021/12/27 00:52:26;;;;;;;10.48;8.10;;;;;;;3.11;100.00;99547.44;678379;29;1192;-83
2021/12/27 00:52:50;;;;;;;11.40;8.13;;;;;;;3.11;100.00;99552.63;676466;28;1381;-84
2021/12/27 00:53:11;;;;;;;10.60;8.18;;;;;;;3.06;100.00;99524.19;674882;28;1313;-84
2021/12/27 00:53:37;;;;;;;11.02;8.02;;;;;;;3.09;100.00;99524.19;668494;29;4291;-84
2021/12/27 00:53:57;;;;;;;12.63;8.60;;;;;;;3.01;100.00;99542.19;675315;29;1843;-84
2021/12/27 00:54:21;;;;;;;11.27;8.40;;;;;;;3.06;100.00;99547.44;674160;29;998;-83
2021/12/27 00:54:44;;;;;;;11.55;8.20;;;;;;;3.09;100.00;99528.47;675583;29;2127;-84
2021/12/27 00:55:08;;;;;;;10.15;7.93;;;;;;;3.05;100.00;99548.25;674992;29;1246;-84
2021/12/27 00:55:31;;;;;;;10.38;8.20;;;;;;;3.07;100.00;99541.38;672124;29;1296;-83
2021/12/27 00:55:52;;;;;;;11.60;8.35;;;;;;;3.08;100.00;99532.78;676013;29;853;-84
2021/12/27 00:56:20;;;;;;;11.35;8.48;;;;;;;3.02;100.00;99522.44;674580;29;4391;-84
2021/12/27 00:56:42;;;;;;;11.32;8.05;;;;;;;2.96;100.00;99537.84;676446;29;3167;-84
2021/12/27 00:57:05;;;;;;;11.43;7.95;;;;;;;3.02;100.00;99520.69;679508;28;1475;-83
2021/12/27 00:57:29;;;;;;;10.57;8.00;;;;;;;3.06;100.00;99514.72;680111;28;1907;-84
2021/12/27 00:57:52;;;;;;;10.73;8.13;;;;;;;3.14;100.00;99526.81;678839;29;1232;-84
2021/12/27 00:58:18;;;;;;;11.13;7.82;;;;;;;3.21;100.00;99536.31;673626;29;1372;-83
2021/12/27 00:58:41;;;;;;;10.90;8.13;;;;;;;3.22;100.00;99550.97;671098;29;1478;-84
2021/12/27 00:59:16;;;;;;;10.85;8.20;;;;;;;3.29;100.00;99521.72;673877;29;1467;-84
2021/12/27 00:59:52;;;;;;;11.20;8.20;;;;;;;3.19;100.00;99512.22;673193;29;4960;-83
2021/12/27 01:00:20;;;;;;;11.13;8.32;;;;;;;3.18;100.00;99510.47;677084;29;1223;-83
2021/12/27 01:00:45;;;;;;;10.88;8.15;;;;;;;3.13;100.00;99537.97;678217;29;1134;-84
2021/12/27 01:01:10;;;;;;;11.98;8.25;;;;;;;3.09;100.00;99531.06;672423;29;1215;-83
2021/12/27 01:01:31;;;;;;;11.43;7.95;;;;;;;3.06;100.00;99539.69;674290;29;1519;-84
2021/12/27 01:01:57;;;;;;;10.32;7.80;;;;;;;3.11;100.00;99524.22;674586;29;1163;-84
2021/12/27 01:02:17;;;;;;;10.73;8.20;;;;;;;3.06;100.00;99517.28;677255;28;4391;-84
2021/12/27 01:02:44;;;;;;;11.18;8.43;;;;;;;3.00;100.00;99542.19;674781;29;1945;-84
2021/12/27 01:03:08;;;;;;;10.40;7.80;;;;;;;3.15;100.00;99542.31;672847;29;1224;-83
2021/12/27 01:03:45;;;;;;;11.20;7.90;;;;;;;3.25;100.00;99519.97;676558;29;1448;-84
2021/12/27 01:04:11;;;;;;;11.35;8.10;;;;;;;3.25;100.00;99535.47;675349;29;1592;-84
2021/12/27 01:04:36;;;;;;;11.75;8.13;;;;;;;3.25;100.00;99548.41;680321;28;1237;-84
2021/12/27 01:04:57;;;;;;;10.68;8.02;;;;;;;3.29;100.00;99547.56;679947;29;1396;-83
2021/12/27 01:05:24;;;;;;;10.90;8.15;;;;;;;3.24;100.00;99555.28;676314;29;4392;-83
2021/12/27 01:05:52;;;;;;;12.30;8.68;;;;;;;3.15;100.00;99549.19;681234;28;1293;-83
2021/12/27 01:06:16;;;;;;;11.27;8.20;;;;;;;3.05;100.00;99543.97;678573;29;1461;-83
2021/12/27 01:07:02;;;;;;;10.88;8.05;;;;;;;3.09;100.00;99512.97;679015;29;1237;-83
2021/12/27 01:07:23;;;;;;;12.05;8.65;;;;;;;3.02;100.00;99541.34;676025;29;1327;-83
2021/12/27 01:07:49;;;;;;;11.23;8.07;;;;;;;2.96;100.00;99541.28;678216;29;944;-83
2021/12/27 01:08:10;;;;;;;11.15;8.27;;;;;;;2.92;100.00;99557.59;677797;29;1580;-83
2021/12/27 01:08:32;;;;;;;11.52;8.50;;;;;;;2.88;100.00;99517.13;671121;29;4493;-83
2021/12/27 01:08:55;;;;;;;11.15;8.32;;;;;;;2.95;100.00;99539.59;679040;29;1455;-83
2021/12/27 01:09:42;;;;;;;12.27;8.50;;;;;;;3.00;100.00;99534.44;677627;29;1319;-83
2021/12/27 01:12:48;;;;;;;10.90;8.27;;;;;;;3.12;100.00;99515.63;676278;29;1304;-83
2021/12/27 01:13:26;;;;;;;10.57;8.00;;;;;;;3.03;100.00;99522.44;674256;29;1367;-83
2021/12/27 01:14:11;;;;;;;10.82;8.27;;;;;;;3.00;100.00;99517.22;677494;28;1340;-83
2021/12/27 01:14:44;;;;;;;11.23;8.52;;;;;;;3.05;100.00;99512.13;681044;28;4354;-83
2021/12/27 01:15:33;;;;;;;11.20;8.50;;;;;;;2.98;100.00;99549.94;680421;29;1313;-83
2021/12/27 01:16:10;;;;;;;11.40;8.25;;;;;;;3.04;100.00;99546.53;679069;29;1431;-83
2021/12/27 01:16:37;;;;;;;11.93;8.55;;;;;;;3.02;100.00;99546.53;677878;29;2065;-83
2021/12/27 01:17:11;;;;;;;10.90;8.10;;;;;;;3.15;100.00;99528.53;679273;28;1061;-83
2021/12/27 01:17:42;;;;;;;10.88;8.23;;;;;;;3.08;100.00;99545.69;669325;28;4358;-83
2021/12/27 01:18:10;;;;;;;11.25;8.60;;;;;;;2.98;100.00;99511.19;677746;29;1360;-83
2021/12/27 01:18:48;;;;;;;11.52;8.82;;;;;;;3.09;100.00;99518.16;680177;28;1138;-83
2021/12/27 01:19:17;;;;;;;11.66;8.66;;;;;;;3.06;100.00;99524.19;676343;29;1418;-83
2021/12/27 01:19:39;;;;;;;11.43;8.30;;;;;;;3.11;100.00;99534.53;679351;28;2116;-82
2021/12/27 01:20:09;;;;;;;11.40;8.40;;;;;;;3.06;100.00;99540.53;680455;28;1631;-83
2021/12/27 01:20:35;;;;;;;11.52;8.38;;;;;;;3.05;100.00;99517.28;672003;29;4404;-83
2021/12/27 01:21:02;;;;;;;11.60;8.38;;;;;;;2.97;100.00;99545.59;678961;28;1399;-83
2021/12/27 01:21:27;;;;;;;11.18;8.40;;;;;;;3.06;100.00;99539.69;681861;28;1573;-83
2021/12/27 01:21:57;;;;;;;11.98;8.18;;;;;;;3.18;100.00;99513.91;680331;29;1408;-83
2021/12/27 01:22:18;;;;;;;10.23;7.45;;;;;;;3.17;100.00;99540.63;679114;28;2314;-83
2021/12/27 01:22:45;;;;;;;10.23;7.95;;;;;;;3.12;100.00;99520.78;676521;28;1515;-83
2021/12/27 01:23:06;;;;;;;11.63;8.30;;;;;;;3.02;100.00;99543.94;677819;29;1225;-83
2021/12/27 01:23:30;;;;;;;11.20;8.07;;;;;;;3.05;100.00;99553.44;677983;28;4371;-83
2021/12/27 01:23:59;;;;;;;11.30;8.65;;;;;;;3.06;100.00;99544.84;680021;29;2407;-83
2021/12/27 01:24:20;;;;;;;11.60;8.43;;;;;;;3.10;100.00;99532.78;682010;28;1275;-82
2021/12/27 01:24:46;;;;;;;11.45;8.40;;;;;;;3.07;100.00;99520.72;680533;28;1352;-83
2021/12/27 01:25:12;;;;;;;11.07;8.50;;;;;;;3.02;100.00;99549.09;681737;28;1949;-83
2021/12/27 01:25:33;;;;;;;11.20;8.43;;;;;;;3.14;100.00;99519.06;674982;29;1312;-82
2021/12/27 01:25:53;;;;;;;10.90;8.33;;;;;;;3.16;100.00;99531.13;676565;29;1201;-83
2021/12/27 01:26:15;;;;;;;10.48;8.10;;;;;;;3.26;100.00;99518.28;672630;29;4385;-83
2021/12/27 01:26:47;;;;;;;11.27;8.18;;;;;;;3.28;100.00;99537.22;675547;29;1148;-83
2021/12/27 01:27:11;;;;;;;10.43;8.02;;;;;;;3.22;100.00;99519.97;676385;29;1436;-83
2021/12/27 01:27:33;;;;;;;10.50;7.97;;;;;;;3.33;100.00;99557.06;674290;28;1465;-82
2021/12/27 01:27:53;;;;;;;11.52;8.10;;;;;;;3.35;100.00;99537.28;678788;29;1878;-82
2021/12/27 01:28:19;;;;;;;11.52;8.20;;;;;;;3.30;100.00;99513.13;675145;29;2466;-83
2021/12/27 01:28:42;;;;;;;11.07;7.93;;;;;;;3.20;100.00;99537.19;674761;29;1360;-83
2021/12/27 01:29:07;;;;;;;11.65;8.60;;;;;;;3.19;100.00;99532.88;677301;29;1066;-83
2021/12/27 01:29:27;;;;;;;10.82;8.27;;;;;;;3.14;100.00;99516.47;667611;29;4284;-83
2021/12/27 01:29:51;;;;;;;10.65;7.93;;;;;;;3.13;100.00;99549.19;678096;29;817;-83
2021/12/27 01:30:25;;;;;;;11.00;8.40;;;;;;;3.10;100.00;99546.56;678112;29;1286;-83
2021/12/27 01:30:49;;;;;;;11.55;8.45;;;;;;;3.13;100.00;99537.97;674591;29;1950;-83
2021/12/27 01:31:11;;;;;;;11.48;8.40;;;;;;;3.09;100.00;99515.56;673597;29;1292;-82
2021/12/27 01:31:34;;;;;;;11.90;8.70;;;;;;;3.04;100.00;99537.06;677444;29;1217;-83
2021/12/27 01:31:55;;;;;;;11.63;8.70;;;;;;;3.03;100.00;99508.63;679777;29;1930;-82
2021/12/27 01:32:16;;;;;;;11.55;8.52;;;;;;;3.09;100.00;99524.19;679141;28;4325;-83
2021/12/27 01:32:46;;;;;;;10.82;7.82;;;;;;;3.20;100.00;99542.34;683173;28;1735;-83
2021/12/27 01:33:08;;;;;;;10.73;8.10;;;;;;;3.26;100.00;99529.47;682148;28;1510;-83
2021/12/27 01:33:30;;;;;;;11.70;8.25;;;;;;;3.28;100.00;99543.28;678949;28;2319;-83
2021/12/27 01:33:51;;;;;;;10.50;7.68;;;;;;;3.19;100.00;99538.03;680563;28;1296;-83
2021/12/27 01:34:22;;;;;;;10.82;8.15;;;;;;;3.10;100.00;99543.97;677668;29;2587;-83
2021/12/27 01:34:46;;;;;;;10.63;8.20;;;;;;;3.04;100.00;99512.97;681795;28;860;-84
2021/12/27 01:35:07;;;;;;;11.52;8.55;;;;;;;3.14;100.00;99539.72;674694;29;1376;-83
2021/12/27 01:35:31;;;;;;;11.57;8.40;;;;;;;3.09;100.00;99533.63;676436;28;5011;-83
2021/12/27 01:35:53;;;;;;;11.30;8.18;;;;;;;3.12;100.00;99528.53;677267;29;1261;-83
2021/12/27 01:36:19;;;;;;;11.40;8.13;;;;;;;3.12;100.00;99562.09;677372;29;1384;-83
2021/12/27 01:36:56;;;;;;;10.48;7.88;;;;;;;3.16;100.00;99544.03;675873;29;1446;-83
2021/12/27 01:37:22;;;;;;;11.15;7.97;;;;;;;3.13;100.00;99536.28;678451;29;1906;-83
2021/12/27 01:37:49;;;;;;;10.68;7.95;;;;;;;3.04;100.00;99531.88;676732;29;1351;-83
2021/12/27 01:38:15;;;;;;;10.85;8.07;;;;;;;3.04;100.00;99531.03;675298;29;1343;-83
2021/12/27 01:38:43;;;;;;;10.80;8.25;;;;;;;3.01;100.00;99528.44;675349;29;4698;-82
2021/12/27 01:39:10;;;;;;;11.75;8.32;;;;;;;2.97;100.00;99539.59;675012;29;1389;-81
2021/12/27 01:39:33;;;;;;;10.55;8.23;;;;;;;2.94;100.00;99514.63;675324;29;1461;-83
2021/12/27 01:40:07;;;;;;;11.35;8.38;;;;;;;3.06;100.00;99537.09;677005;29;1407;-83
2021/12/27 01:40:30;;;;;;;11.00;8.02;;;;;;;3.09;100.00;99538.81;678315;28;1264;-83
2021/12/27 01:40:59;;;;;;;10.98;8.30;;;;;;;3.08;100.00;99526.78;678289;29;1532;-84
2021/12/27 01:41:20;;;;;;;10.88;8.18;;;;;;;3.09;100.00;99518.16;670355;28;4396;-83
2021/12/27 01:41:45;;;;;;;10.73;7.95;;;;;;;3.03;100.00;99534.47;680795;29;1328;-82
2021/12/27 01:42:08;;;;;;;11.13;7.93;;;;;;;2.98;100.00;99531.00;682501;28;2301;-83
2021/12/27 01:42:36;;;;;;;10.18;7.78;;;;;;;3.06;100.00;99519.88;680340;28;1275;-83
2021/12/27 01:43:19;;;;;;;11.45;8.00;;;;;;;3.11;100.00;99506.13;675338;29;1595;-83
2021/12/27 01:44:04;;;;;;;10.77;8.00;;;;;;;3.16;100.00;99501.88;677630;29;1220;-82
2021/12/27 01:44:27;;;;;;;11.30;8.15;;;;;;;3.23;100.00;99511.38;674545;29;4293;-83
2021/12/27 01:44:50;;;;;;;11.05;7.97;;;;;;;3.32;100.00;99500.22;677403;29;2338;-83
2021/12/27 01:45:13;;;;;;;10.57;7.90;;;;;;;3.37;100.00;99532.13;675327;29;2297;-84
2021/12/27 01:45:40;;;;;;;10.73;7.72;;;;;;;3.24;100.00;99505.38;675652;29;1069;-82
2021/12/27 01:46:17;;;;;;;10.35;7.82;;;;;;;3.23;100.00;99530.31;677619;29;1086;-83
2021/12/27 01:46:39;;;;;;;10.23;7.40;;;;;;;3.24;100.00;99524.31;681165;28;1587;-83
2021/12/27 01:47:05;;;;;;;10.70;7.57;;;;;;;3.19;100.00;99507.03;685196;28;1392;-83
2021/12/27 01:47:38;;;;;;;10.73;7.78;;;;;;;3.10;100.00;99519.88;682222;28;4763;-83
2021/12/27 01:48:04;;;;;;;10.05;7.68;;;;;;;3.06;100.00;99501.78;680194;28;1454;-83
2021/12/27 01:48:33;;;;;;;9.90;7.70;;;;;;;3.10;100.00;99530.22;676515;29;2273;-83
2021/12/27 01:49:05;;;;;;;10.55;8.00;;;;;;;3.13;100.00;99528.53;675136;29;1559;-83
2021/12/27 01:49:28;;;;;;;10.73;7.72;;;;;;;3.22;100.00;99504.47;679026;28;1360;-82
2021/12/27 01:49:49;;;;;;;10.93;7.90;;;;;;;3.23;100.00;99503.63;679615;29;1565;-82
2021/12/27 01:50:12;;;;;;;10.85;7.80;;;;;;;3.26;100.00;99532.06;679591;29;1615;-83
2021/12/27 01:50:40;;;;;;;11.32;8.20;;;;;;;3.22;100.00;99525.13;669180;29;4392;-83
2021/12/27 01:51:02;;;;;;;9.75;7.32;;;;;;;3.14;100.00;99500.97;677562;29;1059;-83
2021/12/27 01:51:28;;;;;;;10.18;7.70;;;;;;;3.09;100.00;99498.38;676210;29;1608;-83
2021/12/27 01:51:51;;;;;;;11.98;8.23;;;;;;;3.03;100.00;99532.75;679868;29;956;-82
2021/12/27 01:52:15;;;;;;;11.23;8.30;;;;;;;2.99;100.00;99502.63;675065;29;1320;-83
2021/12/27 01:52:39;;;;;;;10.80;8.00;;;;;;;2.96;100.00;99530.09;671840;29;1738;-83
2021/12/27 01:53:03;;;;;;;10.80;8.40;;;;;;;3.10;100.00;99519.88;673174;29;1273;-83
2021/12/27 01:53:28;;;;;;;10.95;8.23;;;;;;;3.09;100.00;99507.81;676054;29;4358;-83
2021/12/27 01:53:49;;;;;;;10.88;8.13;;;;;;;3.04;100.00;99518.13;674383;29;3597;-84
2021/12/27 01:54:13;;;;;;;10.85;7.72;;;;;;;2.99;100.00;99538.75;675263;29;1357;-83
2021/12/27 01:54:37;;;;;;;11.68;7.93;;;;;;;2.97;100.00;99524.97;677344;29;1276;-83
2021/12/27 01:54:57;;;;;;;11.93;8.40;;;;;;;2.97;100.00;99530.13;675113;29;1616;-84
2021/12/27 01:55:18;;;;;;;11.10;7.90;;;;;;;2.91;100.00;99499.09;673175;29;1704;-83
2021/12/27 01:55:39;;;;;;;11.32;8.00;;;;;;;2.95;100.00;99521.50;675219;29;1312;-83
2021/12/27 01:56:07;;;;;;;10.88;8.02;;;;;;;2.96;100.00;99528.38;675236;29;1726;-83
2021/12/27 01:56:28;;;;;;;10.50;8.02;;;;;;;2.95;100.00;99539.59;673455;29;4382;-83
2021/12/27 01:56:53;;;;;;;10.43;7.82;;;;;;;2.92;100.00;99521.47;677552;29;1121;-83
2021/12/27 01:57:16;;;;;;;11.15;8.27;;;;;;;2.97;100.00;99504.31;681323;28;1454;-83
2021/12/27 01:57:45;;;;;;;10.70;8.20;;;;;;;3.02;100.00;99492.28;679230;28;1888;-83
2021/12/27 01:58:06;;;;;;;10.75;7.80;;;;;;;3.19;100.00;99509.63;678609;29;821;-83
2021/12/27 01:58:27;;;;;;;10.30;7.50;;;;;;;3.25;100.00;99491.56;681981;28;1271;-83
2021/12/27 01:58:51;;;;;;;10.68;8.00;;;;;;;3.19;100.00;99509.63;683425;28;1340;-83
2021/12/27 01:59:14;;;;;;;10.68;7.68;;;;;;;3.26;100.00;99506.22;676582;29;2446;-83
2021/12/27 01:59:38;;;;;;;10.27;7.78;;;;;;;3.22;100.00;99494.16;674917;29;4790;-83
2021/12/27 02:00:11;;;;;;;10.50;7.75;;;;;;;3.09;100.00;99513.88;677844;29;1281;-83
2021/12/27 02:00:45;;;;;;;10.77;8.05;;;;;;;3.04;100.00;99492.31;674882;29;1359;-83
2021/12/27 02:01:09;;;;;;;10.77;7.88;;;;;;;2.96;100.00;99496.53;677189;29;1237;-83
2021/12/27 02:01:33;;;;;;;10.68;7.95;;;;;;;2.92;100.00;99516.31;680404;28;1292;-83
2021/12/27 02:01:58;;;;;;;9.70;7.57;;;;;;;2.88;100.00;99520.59;680035;29;1169;-83
2021/12/27 02:02:21;;;;;;;10.75;7.88;;;;;;;2.90;100.00;99494.78;673355;29;4322;-83
2021/12/27 02:02:48;;;;;;;11.18;8.20;;;;;;;2.96;100.00;99523.22;674951;29;3613;-83
2021/12/27 02:03:09;;;;;;;11.00;8.40;;;;;;;3.00;100.00;99499.16;673252;29;1436;-83
2021/12/27 02:03:33;;;;;;;11.10;8.40;;;;;;;3.09;100.00;99528.47;675851;29;1480;-83
2021/12/27 02:04:07;;;;;;;10.38;7.82;;;;;;;3.16;100.00;99530.28;678975;29;1503;-81
2021/12/27 02:04:31;;;;;;;10.82;8.00;;;;;;;3.14;100.00;99511.31;679647;28;1369;-83
2021/12/27 02:04:54;;;;;;;11.40;8.23;;;;;;;3.12;100.00;99513.03;677010;29;1372;-83
2021/12/27 02:05:15;;;;;;;10.65;7.93;;;;;;;3.10;100.00;99512.13;673995;29;4412;-83
2021/12/27 02:05:39;;;;;;;10.50;7.88;;;;;;;3.13;100.00;99488.91;677448;29;1450;-82
2021/12/27 02:06:05;;;;;;;10.20;7.25;;;;;;;3.24;100.00;99492.44;676549;29;1288;-83
2021/12/27 02:06:28;;;;;;;10.07;7.72;;;;;;;3.29;100.00;99510.56;677373;29;1412;-83
2021/12/27 02:06:55;;;;;;;10.45;7.70;;;;;;;3.26;100.00;99485.56;682376;28;1492;-84